Gray, Louisiana
Current Conditions -  °F | °C
As of 2:55 PM on Wednesday 26 Nov 2014 (Local Time) from KHUM Reporting Station
Clear Clear  
Wind Chill: 66°   Ceiling: Unl
Heat Index: 66°   Visibility: 7mi
Dew Point: 39°   Wind: 10mph
Humidity: 37%   Direction: 260°W
Pressure: 30.2"   Gusts: NA
Location:  29.68°N, 90.78°W
Report Text: KHUM 262055Z 26009KT 7SM SKC 19/04 A3020 RMK RY12/30 CLOSED ATIS V VA RY18 OO
Loading
Personal Weather Stations






























Interactive Weather Map New forecast layout! Learn more

10-Day Weather Forecast

Advertisements
Track Severe Weather on mobile